sensor_id;sensor_type;location;lat;lon;timestamp;pressure;altitude;pressure_sealevel;temperature;humidity
49973;BME280;35865;49.798;10.968;2022-07-23T00:02:14;98125.25;;;21.35;73.18
49973;BME280;35865;49.798;10.968;2022-07-23T00:04:40;98117.97;;;21.35;72.48
49973;BME280;35865;49.798;10.968;2022-07-23T00:07:06;98123.97;;;21.32;72.52
49973;BME280;35865;49.798;10.968;2022-07-23T00:09:33;98117.00;;;21.31;71.47
49973;BME280;35865;49.798;10.968;2022-07-23T00:11:59;98118.91;;;21.30;71.33
49973;BME280;35865;49.798;10.968;2022-07-23T00:14:26;98121.59;;;21.30;70.94
49973;BME280;35865;49.798;10.968;2022-07-23T00:16:53;98126.69;;;21.23;71.22
49973;BME280;35865;49.798;10.968;2022-07-23T00:19:20;98128.94;;;21.21;71.82
49973;BME280;35865;49.798;10.968;2022-07-23T00:21:46;98119.72;;;21.13;72.26
49973;BME280;35865;49.798;10.968;2022-07-23T00:24:12;98109.06;;;21.08;72.48
49973;BME280;35865;49.798;10.968;2022-07-23T00:26:39;98099.72;;;21.06;72.51
49973;BME280;35865;49.798;10.968;2022-07-23T00:29:06;98096.56;;;21.04;72.47
49973;BME280;35865;49.798;10.968;2022-07-23T00:31:32;98093.38;;;21.02;72.91
49973;BME280;35865;49.798;10.968;2022-07-23T00:34:00;98095.44;;;20.96;72.96
49973;BME280;35865;49.798;10.968;2022-07-23T00:36:27;98092.28;;;20.94;72.92
49973;BME280;35865;49.798;10.968;2022-07-23T00:38:53;98093.84;;;20.95;73.14
49973;BME280;35865;49.798;10.968;2022-07-23T00:41:21;98097.34;;;20.95;73.31
49973;BME280;35865;49.798;10.968;2022-07-23T00:43:48;98089.88;;;20.92;73.70
49973;BME280;35865;49.798;10.968;2022-07-23T00:46:19;98088.44;;;20.86;74.45
49973;BME280;35865;49.798;10.968;2022-07-23T00:48:45;98080.94;;;20.74;74.98
49973;BME280;35865;49.798;10.968;2022-07-23T00:51:14;98075.25;;;20.67;74.94
49973;BME280;35865;49.798;10.968;2022-07-23T00:53:41;98064.00;;;20.65;75.47
49973;BME280;35865;49.798;10.968;2022-07-23T00:56:08;98054.00;;;20.57;76.13
49973;BME280;35865;49.798;10.968;2022-07-23T00:58:35;98060.31;;;20.52;76.52
49973;BME280;35865;49.798;10.968;2022-07-23T01:01:02;98042.56;;;20.51;76.58
49973;BME280;35865;49.798;10.968;2022-07-23T01:03:28;98043.38;;;20.52;76.26
49973;BME280;35865;49.798;10.968;2022-07-23T01:05:55;98037.03;;;20.48;76.42
49973;BME280;35865;49.798;10.968;2022-07-23T01:08:23;98029.28;;;20.46;76.71
49973;BME280;35865;49.798;10.968;2022-07-23T01:10:50;98028.63;;;20.49;77.89
49973;BME280;35865;49.798;10.968;2022-07-23T01:13:17;98026.72;;;20.41;77.91
49973;BME280;35865;49.798;10.968;2022-07-23T01:15:44;98032.25;;;20.44;77.39
49973;BME280;35865;49.798;10.968;2022-07-23T01:18:10;98024.00;;;20.32;77.80
49973;BME280;35865;49.798;10.968;2022-07-23T01:20:37;98020.19;;;20.24;77.70
49973;BME280;35865;49.798;10.968;2022-07-23T01:23:05;98026.50;;;20.20;78.55
49973;BME280;35865;49.798;10.968;2022-07-23T01:25:32;98019.56;;;20.19;78.43
49973;BME280;35865;49.798;10.968;2022-07-23T01:27:58;98022.25;;;20.19;78.72
49973;BME280;35865;49.798;10.968;2022-07-23T01:30:25;98017.97;;;20.18;78.69
49973;BME280;35865;49.798;10.968;2022-07-23T01:32:51;98017.19;;;20.17;78.23
49973;BME280;35865;49.798;10.968;2022-07-23T01:35:18;98012.25;;;20.28;78.65
49973;BME280;35865;49.798;10.968;2022-07-23T01:37:44;98010.25;;;20.34;78.34
49973;BME280;35865;49.798;10.968;2022-07-23T01:40:12;98024.16;;;20.36;78.47
49973;BME280;35865;49.798;10.968;2022-07-23T01:42:38;98023.84;;;20.28;78.86
49973;BME280;35865;49.798;10.968;2022-07-23T01:45:06;98023.38;;;20.35;78.55
49973;BME280;35865;49.798;10.968;2022-07-23T01:47:32;98021.94;;;20.29;78.23
49973;BME280;35865;49.798;10.968;2022-07-23T01:49:59;98029.88;;;20.25;78.59
49973;BME280;35865;49.798;10.968;2022-07-23T01:52:25;98034.44;;;20.25;78.16
49973;BME280;35865;49.798;10.968;2022-07-23T01:54:51;98047.00;;;20.29;77.92
49973;BME280;35865;49.798;10.968;2022-07-23T01:57:19;98064.72;;;20.31;78.31
49973;BME280;35865;49.798;10.968;2022-07-23T01:59:46;98055.34;;;20.28;78.36
49973;BME280;35865;49.798;10.968;2022-07-23T02:02:12;98049.38;;;20.31;77.86
49973;BME280;35865;49.798;10.968;2022-07-23T02:04:38;98053.47;;;20.37;77.56
49973;BME280;35865;49.798;10.968;2022-07-23T02:07:05;98053.81;;;20.36;77.37
49973;BME280;35865;49.798;10.968;2022-07-23T02:09:32;98055.53;;;20.40;77.50
49973;BME280;35865;49.798;10.968;2022-07-23T02:11:58;98056.66;;;20.39;77.45
49973;BME280;35865;49.798;10.968;2022-07-23T02:14:26;98054.91;;;20.35;77.69
49973;BME280;35865;49.798;10.968;2022-07-23T02:16:53;98060.59;;;20.24;78.18
49973;BME280;35865;49.798;10.968;2022-07-23T02:19:19;98071.94;;;20.12;79.06
49973;BME280;35865;49.798;10.968;2022-07-23T02:21:46;98066.56;;;20.12;79.12
49973;BME280;35865;49.798;10.968;2022-07-23T02:24:12;98063.22;;;19.98;79.67
49973;BME280;35865;49.798;10.968;2022-07-23T02:26:39;98061.75;;;19.92;79.75
49973;BME280;35865;49.798;10.968;2022-07-23T02:29:05;98060.13;;;19.91;79.54
49973;BME280;35865;49.798;10.968;2022-07-23T02:31:33;98048.88;;;19.89;79.71
49973;BME280;35865;49.798;10.968;2022-07-23T02:34:00;98055.88;;;19.90;79.48
49973;BME280;35865;49.798;10.968;2022-07-23T02:36:27;98033.69;;;19.84;79.60
49973;BME280;35865;49.798;10.968;2022-07-23T02:38:53;98030.69;;;19.86;80.10
49973;BME280;35865;49.798;10.968;2022-07-23T02:41:20;98029.72;;;19.82;79.88
49973;BME280;35865;49.798;10.968;2022-07-23T02:43:46;98022.72;;;19.81;80.15
49973;BME280;35865;49.798;10.968;2022-07-23T02:46:12;98022.25;;;19.78;80.43
49973;BME280;35865;49.798;10.968;2022-07-23T02:48:40;98019.97;;;19.63;80.46
49973;BME280;35865;49.798;10.968;2022-07-23T02:51:07;98022.31;;;19.56;80.93
49973;BME280;35865;49.798;10.968;2022-07-23T02:53:33;98017.25;;;19.54;81.53
49973;BME280;35865;49.798;10.968;2022-07-23T02:55:59;98013.28;;;19.52;82.44
49973;BME280;35865;49.798;10.968;2022-07-23T02:58:26;98009.13;;;19.45;83.29
49973;BME280;35865;49.798;10.968;2022-07-23T03:00:53;98011.50;;;19.47;84.90
49973;BME280;35865;49.798;10.968;2022-07-23T03:03:19;98011.34;;;19.43;86.63
49973;BME280;35865;49.798;10.968;2022-07-23T03:05:47;98012.41;;;19.34;87.85
49973;BME280;35865;49.798;10.968;2022-07-23T03:08:14;98012.50;;;19.28;88.98
49973;BME280;35865;49.798;10.968;2022-07-23T03:10:40;98016.97;;;19.33;90.16
49973;BME280;35865;49.798;10.968;2022-07-23T03:13:07;98023.91;;;19.25;90.64
49973;BME280;35865;49.798;10.968;2022-07-23T03:15:33;98025.47;;;19.26;91.10
49973;BME280;35865;49.798;10.968;2022-07-23T03:18:00;98014.44;;;19.28;89.56
49973;BME280;35865;49.798;10.968;2022-07-23T03:20:26;98015.88;;;19.34;87.57
49973;BME280;35865;49.798;10.968;2022-07-23T03:22:54;98011.38;;;19.52;84.90
49973;BME280;35865;49.798;10.968;2022-07-23T03:25:20;98016.13;;;19.55;83.58
49973;BME280;35865;49.798;10.968;2022-07-23T03:27:46;98026.59;;;19.57;83.20
49973;BME280;35865;49.798;10.968;2022-07-23T03:30:13;98011.44;;;19.61;82.37
49973;BME280;35865;49.798;10.968;2022-07-23T03:32:39;98008.22;;;19.59;82.62
49973;BME280;35865;49.798;10.968;2022-07-23T03:35:06;98008.88;;;19.56;82.37
49973;BME280;35865;49.798;10.968;2022-07-23T03:37:33;97995.53;;;19.51;82.61
49973;BME280;35865;49.798;10.968;2022-07-23T03:40:01;97995.53;;;19.51;82.45
49973;BME280;35865;49.798;10.968;2022-07-23T03:42:27;97995.34;;;19.47;82.76
49973;BME280;35865;49.798;10.968;2022-07-23T03:44:54;98013.59;;;19.50;82.88
49973;BME280;35865;49.798;10.968;2022-07-23T03:47:20;98013.41;;;19.47;83.09
49973;BME280;35865;49.798;10.968;2022-07-23T03:49:47;98016.88;;;19.47;83.40
49973;BME280;35865;49.798;10.968;2022-07-23T03:52:14;98015.13;;;19.42;83.72
49973;BME280;35865;49.798;10.968;2022-07-23T03:54:41;98017.63;;;19.39;83.53
49973;BME280;35865;49.798;10.968;2022-07-23T03:57:08;98024.91;;;19.38;83.58
49973;BME280;35865;49.798;10.968;2022-07-23T03:59:35;98025.03;;;19.33;83.68
49973;BME280;35865;49.798;10.968;2022-07-23T04:02:02;98024.91;;;19.38;83.78
49973;BME280;35865;49.798;10.968;2022-07-23T04:04:28;98025.22;;;19.37;83.65
49973;BME280;35865;49.798;10.968;2022-07-23T04:06:55;98033.31;;;19.45;83.45
49973;BME280;35865;49.798;10.968;2022-07-23T04:09:21;98032.72;;;19.49;83.59
49973;BME280;35865;49.798;10.968;2022-07-23T04:11:47;98031.78;;;19.53;83.38
49973;BME280;35865;49.798;10.968;2022-07-23T04:14:16;98029.41;;;19.52;83.81
49973;BME280;35865;49.798;10.968;2022-07-23T04:16:42;98038.09;;;19.49;83.96
49973;BME280;35865;49.798;10.968;2022-07-23T04:19:08;98040.97;;;19.52;84.27
49973;BME280;35865;49.798;10.968;2022-07-23T04:21:35;98044.31;;;19.58;84.38
49973;BME280;35865;49.798;10.968;2022-07-23T04:24:01;98054.94;;;19.63;84.04
49973;BME280;35865;49.798;10.968;2022-07-23T04:26:28;98051.81;;;19.70;84.04
49973;BME280;35865;49.798;10.968;2022-07-23T04:28:54;98058.69;;;19.85;84.29
49973;BME280;35865;49.798;10.968;2022-07-23T04:31:22;98056.53;;;19.95;84.26
49973;BME280;35865;49.798;10.968;2022-07-23T04:33:48;98062.28;;;20.11;83.80
49973;BME280;35865;49.798;10.968;2022-07-23T04:36:15;98068.06;;;20.36;83.10
49973;BME280;35865;49.798;10.968;2022-07-23T04:38:41;98065.44;;;20.62;82.87
49973;BME280;35865;49.798;10.968;2022-07-23T04:41:08;98059.44;;;20.92;82.48
49973;BME280;35865;49.798;10.968;2022-07-23T04:43:34;98068.78;;;21.21;81.37
49973;BME280;35865;49.798;10.968;2022-07-23T04:46:00;98071.28;;;21.43;80.64
49973;BME280;35865;49.798;10.968;2022-07-23T04:48:28;98062.63;;;21.68;79.84
49973;BME280;35865;49.798;10.968;2022-07-23T04:50:55;98064.06;;;21.83;78.97
49973;BME280;35865;49.798;10.968;2022-07-23T04:53:21;98063.53;;;21.98;78.48
49973;BME280;35865;49.798;10.968;2022-07-23T04:55:48;98069.88;;;22.02;78.27
49973;BME280;35865;49.798;10.968;2022-07-23T04:58:14;98068.28;;;22.01;78.01
49973;BME280;35865;49.798;10.968;2022-07-23T05:00:40;98067.53;;;22.22;77.78
49973;BME280;35865;49.798;10.968;2022-07-23T05:03:07;98060.50;;;22.29;76.72
49973;BME280;35865;49.798;10.968;2022-07-23T05:05:35;98060.63;;;22.33;76.78
49973;BME280;35865;49.798;10.968;2022-07-23T05:08:02;98065.91;;;22.29;77.11
49973;BME280;35865;49.798;10.968;2022-07-23T05:10:28;98076.28;;;22.48;76.17
49973;BME280;35865;49.798;10.968;2022-07-23T05:12:55;98088.94;;;22.57;75.50
49973;BME280;35865;49.798;10.968;2022-07-23T05:15:21;98091.28;;;22.67;75.35
49973;BME280;35865;49.798;10.968;2022-07-23T05:17:48;98094.66;;;22.85;75.10
49973;BME280;35865;49.798;10.968;2022-07-23T05:20:14;98100.84;;;23.28;74.21
49973;BME280;35865;49.798;10.968;2022-07-23T05:22:42;98093.59;;;23.87;72.37
49973;BME280;35865;49.798;10.968;2022-07-23T05:25:09;98096.53;;;24.31;70.14
49973;BME280;35865;49.798;10.968;2022-07-23T05:27:35;98100.38;;;24.79;68.51
49973;BME280;35865;49.798;10.968;2022-07-23T05:30:02;98099.34;;;25.53;66.36
49973;BME280;35865;49.798;10.968;2022-07-23T05:32:31;98092.03;;;26.01;64.11
49973;BME280;35865;49.798;10.968;2022-07-23T05:34:57;98092.50;;;26.91;61.69
49973;BME280;35865;49.798;10.968;2022-07-23T05:37:24;98088.69;;;27.54;59.37
49973;BME280;35865;49.798;10.968;2022-07-23T05:39:51;98090.69;;;27.34;58.84
49973;BME280;35865;49.798;10.968;2022-07-23T05:42:18;98086.13;;;26.83;59.47
49973;BME280;35865;49.798;10.968;2022-07-23T05:44:44;98083.84;;;26.49;59.84
49973;BME280;35865;49.798;10.968;2022-07-23T05:47:11;98091.63;;;26.67;59.45
49973;BME280;35865;49.798;10.968;2022-07-23T05:49:37;98085.75;;;26.13;60.46
49973;BME280;35865;49.798;10.968;2022-07-23T05:52:04;98094.84;;;26.21;60.97
49973;BME280;35865;49.798;10.968;2022-07-23T05:54:31;98090.53;;;26.36;60.58
49973;BME280;35865;49.798;10.968;2022-07-23T05:56:58;98095.34;;;26.43;60.83
49973;BME280;35865;49.798;10.968;2022-07-23T05:59:25;98100.66;;;26.71;60.04
49973;BME280;35865;49.798;10.968;2022-07-23T06:01:51;98104.75;;;26.81;59.56
49973;BME280;35865;49.798;10.968;2022-07-23T06:04:18;98094.22;;;26.28;59.73
49973;BME280;35865;49.798;10.968;2022-07-23T06:06:44;98103.22;;;26.48;59.52
49973;BME280;35865;49.798;10.968;2022-07-23T06:09:11;98124.38;;;26.39;60.04
49973;BME280;35865;49.798;10.968;2022-07-23T06:11:39;98128.97;;;26.86;59.50
49973;BME280;35865;49.798;10.968;2022-07-23T06:14:06;98125.59;;;26.93;58.80
49973;BME280;35865;49.798;10.968;2022-07-23T06:16:33;98129.31;;;26.84;58.39
49973;BME280;35865;49.798;10.968;2022-07-23T06:18:59;98134.00;;;26.68;58.98
49973;BME280;35865;49.798;10.968;2022-07-23T06:21:25;98142.31;;;27.30;57.65
49973;BME280;35865;49.798;10.968;2022-07-23T06:23:52;98139.88;;;27.45;56.79
49973;BME280;35865;49.798;10.968;2022-07-23T06:26:18;98142.66;;;27.68;56.60
49973;BME280;35865;49.798;10.968;2022-07-23T06:28:45;98143.81;;;28.10;55.01
49973;BME280;35865;49.798;10.968;2022-07-23T06:31:12;98133.84;;;27.98;55.09
49973;BME280;35865;49.798;10.968;2022-07-23T06:33:39;98134.66;;;28.21;54.03
49973;BME280;35865;49.798;10.968;2022-07-23T06:36:06;98132.47;;;28.58;53.86
49973;BME280;35865;49.798;10.968;2022-07-23T06:38:32;98143.09;;;29.20;51.92
49973;BME280;35865;49.798;10.968;2022-07-23T06:40:58;98132.25;;;29.27;52.31
49973;BME280;35865;49.798;10.968;2022-07-23T06:43:25;98135.66;;;28.86;51.93
49973;BME280;35865;49.798;10.968;2022-07-23T06:45:51;98151.72;;;29.26;52.55
49973;BME280;35865;49.798;10.968;2022-07-23T06:48:19;98148.88;;;29.45;51.92
49973;BME280;35865;49.798;10.968;2022-07-23T06:50:45;98146.59;;;28.90;52.91
49973;BME280;35865;49.798;10.968;2022-07-23T06:53:12;98147.16;;;28.73;53.44
49973;BME280;35865;49.798;10.968;2022-07-23T06:55:38;98146.59;;;28.13;54.84
49973;BME280;35865;49.798;10.968;2022-07-23T06:58:05;98155.72;;;28.01;55.47
49973;BME280;35865;49.798;10.968;2022-07-23T07:00:31;98161.91;;;28.21;55.19
49973;BME280;35865;49.798;10.968;2022-07-23T07:02:58;98176.75;;;28.24;55.34
49973;BME280;35865;49.798;10.968;2022-07-23T07:05:26;98171.44;;;28.54;54.88
49973;BME280;35865;49.798;10.968;2022-07-23T07:07:53;98180.47;;;29.12;53.78
49973;BME280;35865;49.798;10.968;2022-07-23T07:10:20;98185.75;;;29.62;52.77
49973;BME280;35865;49.798;10.968;2022-07-23T07:12:46;98192.22;;;29.84;52.50
49973;BME280;35865;49.798;10.968;2022-07-23T07:15:12;98186.75;;;29.84;51.53
49973;BME280;35865;49.798;10.968;2022-07-23T07:17:39;98173.16;;;29.54;52.00
49973;BME280;35865;49.798;10.968;2022-07-23T07:20:06;98185.63;;;29.21;52.10
49973;BME280;35865;49.798;10.968;2022-07-23T07:22:34;98193.34;;;28.62;52.41
49973;BME280;35865;49.798;10.968;2022-07-23T07:25:00;98193.56;;;28.03;53.22
49973;BME280;35865;49.798;10.968;2022-07-23T07:27:27;98212.50;;;27.57;54.56
49973;BME280;35865;49.798;10.968;2022-07-23T07:29:53;98206.44;;;27.08;55.53
49973;BME280;35865;49.798;10.968;2022-07-23T07:32:20;98208.31;;;26.72;57.06
49973;BME280;35865;49.798;10.968;2022-07-23T07:34:46;98205.34;;;26.29;58.49
49973;BME280;35865;49.798;10.968;2022-07-23T07:37:13;98217.75;;;25.98;59.69
49973;BME280;35865;49.798;10.968;2022-07-23T07:39:40;98234.88;;;25.86;62.62
49973;BME280;35865;49.798;10.968;2022-07-23T07:42:07;98240.25;;;25.42;64.72
49973;BME280;35865;49.798;10.968;2022-07-23T07:44:33;98248.44;;;25.05;66.54
49973;BME280;35865;49.798;10.968;2022-07-23T07:47:00;98240.59;;;24.54;68.59
49973;BME280;35865;49.798;10.968;2022-07-23T07:49:26;98243.25;;;24.29;70.05
49973;BME280;35865;49.798;10.968;2022-07-23T07:51:53;98243.94;;;23.93;69.95
49973;BME280;35865;49.798;10.968;2022-07-23T07:54:19;98250.16;;;23.93;70.57
49973;BME280;35865;49.798;10.968;2022-07-23T07:56:47;98248.41;;;24.10;70.86
49973;BME280;35865;49.798;10.968;2022-07-23T07:59:13;98249.66;;;24.12;70.46
49973;BME280;35865;49.798;10.968;2022-07-23T08:01:40;98252.06;;;24.26;71.17
49973;BME280;35865;49.798;10.968;2022-07-23T08:04:06;98275.13;;;24.32;71.22
49973;BME280;35865;49.798;10.968;2022-07-23T08:06:33;98277.31;;;24.18;70.56
49973;BME280;35865;49.798;10.968;2022-07-23T08:08:59;98275.06;;;23.87;73.50
49973;BME280;35865;49.798;10.968;2022-07-23T08:11:26;98279.56;;;23.82;72.48
49973;BME280;35865;49.798;10.968;2022-07-23T08:13:54;98273.03;;;23.83;73.95
49973;BME280;35865;49.798;10.968;2022-07-23T08:16:20;98250.31;;;23.76;76.23
49973;BME280;35865;49.798;10.968;2022-07-23T08:18:46;98267.22;;;23.73;76.81
49973;BME280;35865;49.798;10.968;2022-07-23T08:21:13;98273.88;;;23.75;76.11
49973;BME280;35865;49.798;10.968;2022-07-23T08:23:39;98286.81;;;23.91;76.21
49973;BME280;35865;49.798;10.968;2022-07-23T08:26:06;98286.03;;;23.90;76.58
49973;BME280;35865;49.798;10.968;2022-07-23T08:28:32;98282.78;;;23.97;75.27
49973;BME280;35865;49.798;10.968;2022-07-23T08:31:00;98275.66;;;23.92;75.91
49973;BME280;35865;49.798;10.968;2022-07-23T08:33:26;98272.03;;;23.88;75.41
49973;BME280;35865;49.798;10.968;2022-07-23T08:35:53;98289.63;;;24.15;74.93
49973;BME280;35865;49.798;10.968;2022-07-23T08:38:21;98296.06;;;24.44;74.59
49973;BME280;35865;49.798;10.968;2022-07-23T08:40:49;98289.53;;;24.58;74.65
49973;BME280;35865;49.798;10.968;2022-07-23T08:43:18;98276.69;;;24.79;74.43
49973;BME280;35865;49.798;10.968;2022-07-23T08:45:47;98281.22;;;24.88;74.02
49973;BME280;35865;49.798;10.968;2022-07-23T08:48:16;98276.59;;;25.13;73.39
49973;BME280;35865;49.798;10.968;2022-07-23T08:50:44;98270.22;;;25.09;72.57
49973;BME280;35865;49.798;10.968;2022-07-23T08:53:11;98272.75;;;25.14;72.22
49973;BME280;35865;49.798;10.968;2022-07-23T08:55:38;98278.94;;;25.27;72.18
49973;BME280;35865;49.798;10.968;2022-07-23T08:58:04;98290.38;;;25.32;72.56
49973;BME280;35865;49.798;10.968;2022-07-23T09:00:32;98301.72;;;25.75;72.26
49973;BME280;35865;49.798;10.968;2022-07-23T09:02:58;98315.75;;;25.65;70.78
49973;BME280;35865;49.798;10.968;2022-07-23T09:05:26;98320.41;;;25.64;71.10
49973;BME280;35865;49.798;10.968;2022-07-23T09:08:11;98304.22;;;26.53;69.52
49973;BME280;35865;49.798;10.968;2022-07-23T09:10:47;98294.22;;;27.37;66.24
49973;BME280;35865;49.798;10.968;2022-07-23T09:13:35;98288.78;;;27.05;65.09
49973;BME280;35865;49.798;10.968;2022-07-23T09:16:06;98293.88;;;27.58;64.80
49973;BME280;35865;49.798;10.968;2022-07-23T09:18:36;98305.16;;;28.35;63.74
49973;BME280;35865;49.798;10.968;2022-07-23T09:21:11;98300.63;;;29.12;59.94
49973;BME280;35865;49.798;10.968;2022-07-23T09:23:39;98300.47;;;29.55;59.48
49973;BME280;35865;49.798;10.968;2022-07-23T09:26:23;98290.75;;;29.04;57.03
49973;BME280;35865;49.798;10.968;2022-07-23T09:28:55;98287.88;;;28.70;57.76
49973;BME280;35865;49.798;10.968;2022-07-23T09:31:22;98294.72;;;29.10;56.43
49973;BME280;35865;49.798;10.968;2022-07-23T09:33:49;98296.13;;;29.84;54.99
49973;BME280;35865;49.798;10.968;2022-07-23T09:36:26;98308.03;;;30.33;54.45
49973;BME280;35865;49.798;10.968;2022-07-23T09:38:54;98297.63;;;30.50;52.55
49973;BME280;35865;49.798;10.968;2022-07-23T09:41:21;98298.06;;;30.14;53.39
49973;BME280;35865;49.798;10.968;2022-07-23T09:43:54;98301.09;;;30.43;52.70
49973;BME280;35865;49.798;10.968;2022-07-23T09:46:23;98305.66;;;29.98;54.01
49973;BME280;35865;49.798;10.968;2022-07-23T09:48:50;98306.66;;;29.82;54.58
49973;BME280;35865;49.798;10.968;2022-07-23T09:51:19;98292.94;;;29.21;55.04
49973;BME280;35865;49.798;10.968;2022-07-23T09:53:53;98309.28;;;29.18;56.50
49973;BME280;35865;49.798;10.968;2022-07-23T09:56:20;98310.53;;;28.97;57.60
49973;BME280;35865;49.798;10.968;2022-07-23T09:58:49;98304.66;;;28.72;57.58
49973;BME280;35865;49.798;10.968;2022-07-23T10:01:16;98311.84;;;28.61;58.48
49973;BME280;35865;49.798;10.968;2022-07-23T10:03:43;98304.03;;;28.59;58.45
49973;BME280;35865;49.798;10.968;2022-07-23T10:06:09;98311.44;;;28.59;58.11
49973;BME280;35865;49.798;10.968;2022-07-23T10:08:39;98296.91;;;28.74;57.03
49973;BME280;35865;49.798;10.968;2022-07-23T10:11:07;98307.41;;;29.22;56.07
49973;BME280;35865;49.798;10.968;2022-07-23T10:13:34;98299.03;;;28.42;56.65
49973;BME280;35865;49.798;10.968;2022-07-23T10:16:27;98310.91;;;28.73;57.10
49973;BME280;35865;49.798;10.968;2022-07-23T10:18:54;98305.34;;;28.46;57.45
49973;BME280;35865;49.798;10.968;2022-07-23T10:21:25;98310.59;;;28.35;57.71
49973;BME280;35865;49.798;10.968;2022-07-23T10:24:12;98310.09;;;28.95;56.75
49973;BME280;35865;49.798;10.968;2022-07-23T10:26:50;98305.25;;;29.65;55.93
49973;BME280;35865;49.798;10.968;2022-07-23T10:29:27;98305.81;;;30.09;55.13
49973;BME280;35865;49.798;10.968;2022-07-23T10:32:00;98298.63;;;29.36;56.32
49973;BME280;35865;49.798;10.968;2022-07-23T10:34:36;98298.38;;;29.75;56.13
49973;BME280;35865;49.798;10.968;2022-07-23T10:37:12;98301.13;;;30.09;55.15
49973;BME280;35865;49.798;10.968;2022-07-23T10:39:43;98289.44;;;29.78;54.80
49973;BME280;35865;49.798;10.968;2022-07-23T10:42:10;98296.28;;;30.70;53.76
49973;BME280;35865;49.798;10.968;2022-07-23T10:44:39;98287.13;;;31.00;50.82
49973;BME280;35865;49.798;10.968;2022-07-23T10:47:08;98282.38;;;30.94;50.33
49973;BME280;35865;49.798;10.968;2022-07-23T10:49:50;98277.59;;;30.83;51.41
49973;BME280;35865;49.798;10.968;2022-07-23T10:52:23;98281.66;;;31.63;51.19
49973;BME280;35865;49.798;10.968;2022-07-23T10:54:52;98265.75;;;32.05;48.50
49973;BME280;35865;49.798;10.968;2022-07-23T10:57:20;98272.34;;;31.86;47.48
49973;BME280;35865;49.798;10.968;2022-07-23T11:02:52;98266.22;;;32.43;46.90
49973;BME280;35865;49.798;10.968;2022-07-23T11:05:21;98257.75;;;31.64;48.95
49973;BME280;35865;49.798;10.968;2022-07-23T11:08:13;98249.00;;;31.36;48.17
49973;BME280;35865;49.798;10.968;2022-07-23T11:10:46;98258.91;;;31.59;48.67
49973;BME280;35865;49.798;10.968;2022-07-23T11:13:39;98257.03;;;31.74;48.74
49973;BME280;35865;49.798;10.968;2022-07-23T11:16:13;98258.41;;;31.32;50.01
49973;BME280;35865;49.798;10.968;2022-07-23T11:19:03;98249.97;;;31.80;47.83
49973;BME280;35865;49.798;10.968;2022-07-23T11:21:44;98261.84;;;32.06;48.10
49973;BME280;35865;49.798;10.968;2022-07-23T11:24:12;98253.16;;;31.86;47.77
49973;BME280;35865;49.798;10.968;2022-07-23T11:27:01;98248.25;;;31.43;47.53
49973;BME280;35865;49.798;10.968;2022-07-23T11:29:42;98249.09;;;31.54;48.42
49973;BME280;35865;49.798;10.968;2022-07-23T11:32:32;98249.38;;;32.48;46.61
49973;BME280;35865;49.798;10.968;2022-07-23T11:35:00;98243.53;;;31.33;47.52
49973;BME280;35865;49.798;10.968;2022-07-23T11:37:31;98248.53;;;32.30;46.65
49973;BME280;35865;49.798;10.968;2022-07-23T11:39:58;98239.91;;;32.24;46.11
49973;BME280;35865;49.798;10.968;2022-07-23T11:42:26;98243.50;;;32.68;45.56
49973;BME280;35865;49.798;10.968;2022-07-23T11:44:53;98245.44;;;32.85;45.14
49973;BME280;35865;49.798;10.968;2022-07-23T11:47:22;98243.47;;;32.93;44.85
49973;BME280;35865;49.798;10.968;2022-07-23T11:49:53;98231.28;;;32.15;46.74
49973;BME280;35865;49.798;10.968;2022-07-23T11:52:20;98245.78;;;32.15;46.26
49973;BME280;35865;49.798;10.968;2022-07-23T11:54:48;98247.03;;;32.61;46.72
49973;BME280;35865;49.798;10.968;2022-07-23T11:57:15;98232.50;;;32.46;46.45
49973;BME280;35865;49.798;10.968;2022-07-23T11:59:43;98217.75;;;31.48;46.21
49973;BME280;35865;49.798;10.968;2022-07-23T12:02:11;98224.47;;;31.62;46.78
49973;BME280;35865;49.798;10.968;2022-07-23T12:04:38;98225.31;;;31.03;46.96
49973;BME280;35865;49.798;10.968;2022-07-23T12:07:22;98230.31;;;31.60;47.12
49973;BME280;35865;49.798;10.968;2022-07-23T12:09:49;98226.91;;;31.85;46.85
49973;BME280;35865;49.798;10.968;2022-07-23T12:12:16;98222.75;;;31.28;47.50
49973;BME280;35865;49.798;10.968;2022-07-23T12:14:49;98229.75;;;31.22;48.26
49973;BME280;35865;49.798;10.968;2022-07-23T12:17:16;98225.72;;;31.01;47.75
49973;BME280;35865;49.798;10.968;2022-07-23T12:19:42;98218.06;;;30.69;48.85
49973;BME280;35865;49.798;10.968;2022-07-23T12:22:09;98224.69;;;30.65;49.50
49973;BME280;35865;49.798;10.968;2022-07-23T12:24:54;98225.63;;;30.42;49.93
49973;BME280;35865;49.798;10.968;2022-07-23T12:27:21;98223.38;;;30.10;50.45
49973;BME280;35865;49.798;10.968;2022-07-23T12:29:49;98222.03;;;29.97;50.56
49973;BME280;35865;49.798;10.968;2022-07-23T12:32:18;98228.78;;;30.03;50.21
49973;BME280;35865;49.798;10.968;2022-07-23T12:34:45;98220.16;;;30.42;49.35
49973;BME280;35865;49.798;10.968;2022-07-23T12:37:26;98214.69;;;30.90;47.72
49973;BME280;35865;49.798;10.968;2022-07-23T12:39:52;98209.25;;;31.82;47.12
49973;BME280;35865;49.798;10.968;2022-07-23T12:42:18;98210.16;;;32.51;44.60
49973;BME280;35865;49.798;10.968;2022-07-23T12:45:05;98203.03;;;32.93;43.95
49973;BME280;35865;49.798;10.968;2022-07-23T12:50:39;98177.16;;;32.91;42.85
49973;BME280;35865;49.798;10.968;2022-07-23T12:53:08;98182.00;;;33.68;41.90
49973;BME280;35865;49.798;10.968;2022-07-23T12:55:35;98176.16;;;33.55;41.10
49973;BME280;35865;49.798;10.968;2022-07-23T12:58:06;98178.59;;;33.35;40.36
49973;BME280;35865;49.798;10.968;2022-07-23T13:00:50;98174.31;;;34.05;38.62
49973;BME280;35865;49.798;10.968;2022-07-23T13:03:23;98173.97;;;33.14;38.78